EZY56J EGNV-EGPF
Flight info
| Callsign | EZY56J |
|---|---|
| Flight time | N/A |
| Altitude | 22000 |
| Route | NATEB Y96 AGPED |
| Aircraft | A320/M-SDE3FGHIRWY/LB1 |
Departure
| Time | 2026-04-25 18:23 |
|---|---|
| Airport | Teesside International Airport (EGNV) |
Arrival
| Time | N/A |
|---|---|
| Airport | Glasgow Airport (EGPF) |
| Time | Latitude | Longitude | Altitude | Speed | Heading |
|---|---|---|---|---|---|
| 2026-04-25 18:02 | 54.51591 | -1.42452 | 101 ft | 0 kts | 286° |
| 2026-04-25 18:11 | 54.51148 | -1.43247 | 124 ft | 0 kts | 329° |
| 2026-04-25 18:13 | 54.51147 | -1.43246 | 124 ft | 1 kts | 329° |
| 2026-04-25 18:14 | 54.51118 | -1.43211 | 124 ft | 3 kts | 312° |
| 2026-04-25 18:14 | 54.51107 | -1.43184 | 125 ft | 3 kts | 283° |
| 2026-04-25 18:14 | 54.51106 | -1.43162 | 126 ft | 2 kts | 219° |
| 2026-04-25 18:14 | 54.51112 | -1.43155 | 122 ft | 1 kts | 207° |
| 2026-04-25 18:15 | 54.51113 | -1.43154 | 122 ft | 0 kts | 207° |
| 2026-04-25 18:19 | 54.51109 | -1.43159 | 123 ft | 5 kts | 214° |
| 2026-04-25 18:19 | 54.51052 | -1.43251 | 125 ft | 10 kts | 227° |
| 2026-04-25 18:19 | 54.51001 | -1.43384 | 123 ft | 22 kts | 241° |
| 2026-04-25 18:19 | 54.50909 | -1.43619 | 125 ft | 21 kts | 226° |
| 2026-04-25 18:20 | 54.50798 | -1.43749 | 126 ft | 18 kts | 200° |
| 2026-04-25 18:20 | 54.50689 | -1.43821 | 126 ft | 16 kts | 217° |
| 2026-04-25 18:20 | 54.50610 | -1.43953 | 127 ft | 15 kts | 225° |
| 2026-04-25 18:20 | 54.50541 | -1.44080 | 125 ft | 14 kts | 228° |
| 2026-04-25 18:21 | 54.50477 | -1.44201 | 126 ft | 13 kts | 228° |
| 2026-04-25 18:21 | 54.50418 | -1.44311 | 124 ft | 12 kts | 223° |
| 2026-04-25 18:21 | 54.50348 | -1.44361 | 126 ft | 10 kts | 178° |
| 2026-04-25 18:21 | 54.50286 | -1.44319 | 127 ft | 9 kts | 145° |
| 2026-04-25 18:22 | 54.50259 | -1.44239 | 124 ft | 7 kts | 100° |
| 2026-04-25 18:22 | 54.50259 | -1.44212 | 126 ft | 7 kts | 83° |
| 2026-04-25 18:22 | 54.50375 | -1.43967 | 124 ft | 57 kts | 47° |
| 2026-04-25 18:22 | 54.50829 | -1.43114 | 127 ft | 131 kts | 47° |
| 2026-04-25 18:23 | 54.51562 | -1.41742 | 326 ft | 167 kts | 47° |
| 2026-04-25 18:23 | 54.52359 | -1.40250 | 1066 ft | 175 kts | 47° |
| 2026-04-25 18:23 | 54.53186 | -1.38707 | 1777 ft | 176 kts | 47° |
| 2026-04-25 18:23 | 54.54249 | -1.37638 | 2365 ft | 191 kts | 11° |
| 2026-04-25 18:24 | 54.55643 | -1.37843 | 2807 ft | 216 kts | 343° |
| 2026-04-25 18:24 | 54.57129 | -1.38790 | 3307 ft | 240 kts | 336° |
| 2026-04-25 18:24 | 54.58718 | -1.39973 | 4035 ft | 254 kts | 334° |
| 2026-04-25 18:24 | 54.60341 | -1.41183 | 5070 ft | 256 kts | 335° |
| 2026-04-25 18:25 | 54.61994 | -1.42369 | 6096 ft | 259 kts | 336° |
| 2026-04-25 18:25 | 54.63675 | -1.43531 | 7060 ft | 263 kts | 337° |
| 2026-04-25 18:25 | 54.65389 | -1.44685 | 7973 ft | 266 kts | 338° |
| 2026-04-25 18:25 | 54.67140 | -1.45841 | 8881 ft | 271 kts | 338° |
| 2026-04-25 18:26 | 54.68917 | -1.46999 | 9818 ft | 275 kts | 339° |
| 2026-04-25 18:26 | 54.70730 | -1.48172 | 10589 ft | 286 kts | 339° |
| 2026-04-25 18:26 | 54.72668 | -1.49427 | 10918 ft | 310 kts | 339° |
| 2026-04-25 18:26 | 54.74747 | -1.50772 | 11390 ft | 326 kts | 339° |
| 2026-04-25 18:27 | 54.76892 | -1.52166 | 12130 ft | 333 kts | 338° |
| 2026-04-25 18:27 | 54.79077 | -1.53590 | 12937 ft | 337 kts | 338° |
| 2026-04-25 18:27 | 54.81288 | -1.55033 | 13740 ft | 342 kts | 338° |
| 2026-04-25 18:27 | 54.83527 | -1.56495 | 14476 ft | 346 kts | 338° |
| 2026-04-25 18:28 | 54.85791 | -1.57972 | 15160 ft | 351 kts | 338° |
| 2026-04-25 18:28 | 54.88098 | -1.59481 | 15845 ft | 355 kts | 338° |
| 2026-04-25 18:28 | 54.90421 | -1.61005 | 16532 ft | 360 kts | 338° |
| 2026-04-25 18:29 | 54.95159 | -1.64114 | 17843 ft | 370 kts | 338° |
| 2026-04-25 18:29 | 54.97586 | -1.65706 | 18500 ft | 374 kts | 338° |
| 2026-04-25 18:30 | 55.04349 | -1.72509 | 20203 ft | 381 kts | 311° |
| 2026-04-25 18:30 | 55.05970 | -1.76179 | 20743 ft | 383 kts | 300° |
| 2026-04-25 18:30 | 55.07320 | -1.80226 | 21288 ft | 387 kts | 298° |
| 2026-04-25 18:30 | 55.08674 | -1.84311 | 21836 ft | 391 kts | 298° |
| 2026-04-25 18:31 | 55.10042 | -1.88445 | 22212 ft | 394 kts | 298° |
| 2026-04-25 18:31 | 55.11415 | -1.92593 | 22299 ft | 395 kts | 298° |
| 2026-04-25 18:31 | 55.12327 | -1.95343 | 22301 ft | 396 kts | 298° |
| 2026-04-25 18:31 | 55.14176 | -2.00908 | 22282 ft | 396 kts | 298° |
| 2026-04-25 18:32 | 55.15539 | -2.05018 | 22284 ft | 396 kts | 298° |
| 2026-04-25 18:32 | 55.16916 | -2.09189 | 22287 ft | 396 kts | 298° |
| 2026-04-25 18:32 | 55.18291 | -2.13371 | 22281 ft | 396 kts | 298° |
| 2026-04-25 18:32 | 55.19662 | -2.17551 | 22277 ft | 396 kts | 298° |
| 2026-04-25 18:33 | 55.21033 | -2.21734 | 22272 ft | 396 kts | 298° |
| 2026-04-25 18:33 | 55.22400 | -2.25912 | 22269 ft | 395 kts | 298° |
| 2026-04-25 18:33 | 55.23304 | -2.28677 | 22268 ft | 394 kts | 297° |
| 2026-04-25 18:33 | 55.24662 | -2.32845 | 22279 ft | 394 kts | 298° |
| 2026-04-25 18:34 | 55.26010 | -2.36999 | 22262 ft | 395 kts | 298° |
| 2026-04-25 18:34 | 55.27376 | -2.41217 | 22250 ft | 396 kts | 298° |
| 2026-04-25 18:34 | 55.28734 | -2.45413 | 22246 ft | 396 kts | 297° |
| 2026-04-25 18:34 | 55.30097 | -2.49614 | 22260 ft | 396 kts | 297° |
| 2026-04-25 18:35 | 55.31458 | -2.53815 | 22267 ft | 396 kts | 297° |
| 2026-04-25 18:35 | 55.32816 | -2.58018 | 22261 ft | 396 kts | 297° |
| 2026-04-25 18:35 | 55.34161 | -2.62194 | 22253 ft | 396 kts | 298° |
| 2026-04-25 18:35 | 55.35531 | -2.66440 | 22268 ft | 396 kts | 297° |
| 2026-04-25 18:36 | 55.36885 | -2.70646 | 22284 ft | 395 kts | 297° |
| 2026-04-25 18:36 | 55.38232 | -2.74850 | 22285 ft | 394 kts | 297° |
| 2026-04-25 18:36 | 55.39571 | -2.79053 | 22295 ft | 394 kts | 297° |
| 2026-04-25 18:36 | 55.40907 | -2.83254 | 22296 ft | 393 kts | 297° |
| 2026-04-25 18:37 | 55.42239 | -2.87444 | 22295 ft | 392 kts | 297° |
| 2026-04-25 18:37 | 55.43572 | -2.91636 | 22287 ft | 392 kts | 297° |
| 2026-04-25 18:37 | 55.44900 | -2.95813 | 22284 ft | 391 kts | 297° |
| 2026-04-25 18:37 | 55.46066 | -3.00118 | 22290 ft | 389 kts | 287° |
| 2026-04-25 18:38 | 55.46680 | -3.04744 | 22282 ft | 387 kts | 279° |
| 2026-04-25 18:38 | 55.47184 | -3.09403 | 22287 ft | 387 kts | 279° |
| 2026-04-25 18:38 | 55.47682 | -3.14068 | 22264 ft | 387 kts | 279° |
| 2026-04-25 18:38 | 55.48176 | -3.18736 | 22264 ft | 387 kts | 279° |
| 2026-04-25 18:39 | 55.48667 | -3.23410 | 22267 ft | 388 kts | 279° |
| 2026-04-25 18:39 | 55.49155 | -3.28088 | 22250 ft | 388 kts | 279° |
| 2026-04-25 18:39 | 55.49653 | -3.32783 | 22247 ft | 389 kts | 281° |
| 2026-04-25 18:39 | 55.50579 | -3.37187 | 22254 ft | 391 kts | 297° |
| 2026-04-25 18:40 | 55.51988 | -3.41303 | 22256 ft | 391 kts | 300° |
| 2026-04-25 18:40 | 55.53413 | -3.45391 | 22261 ft | 391 kts | 300° |
| 2026-04-25 18:40 | 55.54835 | -3.49480 | 22258 ft | 391 kts | 300° |
| 2026-04-25 18:40 | 55.56226 | -3.53499 | 22263 ft | 391 kts | 299° |
| 2026-04-25 18:41 | 55.57665 | -3.57673 | 22254 ft | 390 kts | 299° |
| 2026-04-25 18:41 | 55.59081 | -3.61779 | 22252 ft | 390 kts | 299° |
| 2026-04-25 18:41 | 55.60490 | -3.65876 | 22252 ft | 390 kts | 299° |
| 2026-04-25 18:41 | 55.61898 | -3.69982 | 22247 ft | 390 kts | 299° |
| 2026-04-25 18:42 | 55.63299 | -3.74083 | 22255 ft | 390 kts | 299° |
| 2026-04-25 18:42 | 55.64229 | -3.76806 | 22253 ft | 390 kts | 299° |
| 2026-04-25 18:42 | 55.66105 | -3.82300 | 22245 ft | 390 kts | 299° |
| 2026-04-25 18:42 | 55.67507 | -3.86416 | 22248 ft | 390 kts | 299° |
| 2026-04-25 18:43 | 55.68904 | -3.90528 | 22240 ft | 389 kts | 299° |
| 2026-04-25 18:43 | 55.70021 | -3.94854 | 22257 ft | 385 kts | 282° |
| 2026-04-25 18:43 | 55.70312 | -3.99542 | 22259 ft | 382 kts | 272° |
| 2026-04-25 18:43 | 55.70609 | -4.04189 | 22230 ft | 374 kts | 284° |
| 2026-04-25 18:44 | 55.71692 | -4.08258 | 22248 ft | 360 kts | 304° |
| 2026-04-25 18:44 | 55.73397 | -4.11437 | 21950 ft | 357 kts | 320° |
| 2026-04-25 18:44 | 55.75552 | -4.13632 | 21432 ft | 361 kts | 336° |
| 2026-04-25 18:44 | 55.78000 | -4.14656 | 20920 ft | 365 kts | 353° |
| 2026-04-25 18:45 | 55.80536 | -4.14370 | 20420 ft | 368 kts | 11° |
| 2026-04-25 18:45 | 55.82894 | -4.12762 | 19932 ft | 370 kts | 30° |
| 2026-04-25 18:45 | 55.84897 | -4.09903 | 19449 ft | 371 kts | 48° |
| 2026-04-25 18:45 | 55.86314 | -4.06091 | 18968 ft | 370 kts | 67° |
| 2026-04-25 18:46 | 55.87020 | -4.01714 | 18492 ft | 367 kts | 85° |
| 2026-04-25 18:46 | 55.87114 | -3.97191 | 17956 ft | 366 kts | 92° |
| 2026-04-25 18:46 | 55.87031 | -3.92668 | 17418 ft | 365 kts | 95° |
| 2026-04-25 18:46 | 55.86855 | -3.88164 | 16896 ft | 364 kts | 96° |
| 2026-04-25 18:47 | 55.86641 | -3.83672 | 16377 ft | 364 kts | 96° |
| 2026-04-25 18:47 | 55.86407 | -3.79189 | 15874 ft | 363 kts | 101° |
| 2026-04-25 18:47 | 55.85699 | -3.74922 | 15378 ft | 358 kts | 118° |
| 2026-04-25 18:47 | 55.84358 | -3.71250 | 14891 ft | 353 kts | 134° |
| 2026-04-25 18:48 | 55.82521 | -3.68436 | 14405 ft | 347 kts | 151° |
| 2026-04-25 18:48 | 55.80351 | -3.66718 | 14053 ft | 337 kts | 166° |
| 2026-04-25 18:48 | 55.78075 | -3.66158 | 13785 ft | 324 kts | 182° |
| 2026-04-25 18:48 | 55.75920 | -3.66652 | 13506 ft | 302 kts | 197° |
| 2026-04-25 18:49 | 55.74032 | -3.67994 | 13232 ft | 284 kts | 211° |
| 2026-04-25 18:49 | 55.72469 | -3.69969 | 12926 ft | 270 kts | 223° |
| 2026-04-25 18:49 | 55.71258 | -3.72405 | 12762 ft | 259 kts | 235° |
| 2026-04-25 18:49 | 55.70386 | -3.75151 | 12599 ft | 255 kts | 246° |
| 2026-04-25 18:50 | 55.69857 | -3.78154 | 12446 ft | 254 kts | 257° |